Time;durP1;ratioP1;P1;durP2;ratioP2;P2;SDS_P1;SDS_P2;PMS_P1;PMS_P2;Temp;Humidity;BMP_temperature;BMP_pressure;BME280_temperature;BME280_humidity;BME280_pressure;Samples;Min_cycle;Max_cycle;Signal;HPM_P1;HPM_P2
2022/08/17 00:00:59;;;;;;;42.53;38.53;;;;;;;20.17;85.71;100828.75;5025062;28;20025;-84
2022/08/17 00:03:30;;;;;;;42.75;38.55;;;;;;;20.10;85.95;100830.97;5043248;28;20041;-83
2022/08/17 00:06:10;;;;;;;43.40;39.30;;;;;;;20.04;86.66;100821.06;5043758;28;20285;-84
2022/08/17 00:09:01;;;;;;;44.08;39.88;;;;;;;20.11;86.36;100818.03;5042624;28;20110;-84
2022/08/17 00:11:33;;;;;;;44.17;39.90;;;;;;;20.00;87.08;100812.53;5028257;28;20052;-82
2022/08/17 00:14:02;;;;;;;44.45;40.13;;;;;;;20.08;86.32;100820.22;5044666;28;20062;-84
2022/08/17 00:16:32;;;;;;;49.83;41.75;;;;;;;19.95;86.88;100801.56;5043377;28;20033;-84
2022/08/17 00:18:59;;;;;;;62.17;40.78;;;;;;;20.00;87.14;100809.78;5044523;28;20036;-85
2022/08/17 00:21:24;;;;;;;61.42;40.55;;;;;;;20.05;86.21;100807.03;5044623;28;20060;-82
2022/08/17 00:23:50;;;;;;;43.00;38.55;;;;;;;20.06;86.16;100805.13;5028934;28;20087;-86
2022/08/17 00:26:17;;;;;;;46.25;41.03;;;;;;;20.07;86.49;100806.75;5045807;28;20078;-84
2022/08/17 00:28:43;;;;;;;43.72;39.05;;;;;;;20.10;86.26;100803.47;5048755;28;20033;-84
2022/08/17 00:31:10;;;;;;;43.67;39.58;;;;;;;20.09;86.20;100799.06;5029712;28;20629;-83
2022/08/17 00:33:39;;;;;;;43.50;39.45;;;;;;;20.10;86.17;100792.47;5048040;28;20033;-87
2022/08/17 00:36:07;;;;;;;42.80;38.78;;;;;;;20.15;85.63;100791.63;5047725;28;20033;-82
2022/08/17 00:38:34;;;;;;;44.38;40.20;;;;;;;20.15;86.03;100788.88;5048699;28;20047;-84
2022/08/17 00:41:13;;;;;;;44.65;40.40;;;;;;;20.10;86.13;100788.88;5048061;28;20043;-83
2022/08/17 00:43:40;;;;;;;44.70;40.33;;;;;;;20.07;86.41;100782.00;5048229;28;20116;-85
2022/08/17 00:46:38;;;;;;;60.33;40.88;;;;;;;20.00;86.95;100781.47;5038668;28;20701;-82
2022/08/17 00:49:04;;;;;;;44.65;40.10;;;;;;;20.15;86.08;100769.63;5036062;28;20052;-83
2022/08/17 00:51:38;;;;;;;43.25;39.22;;;;;;;20.13;86.20;100771.84;5047616;28;20033;-85
2022/08/17 00:54:07;;;;;;;;;;;;;;;20.26;83.43;100776.75;5048581;28;20028;-82
2022/08/17 00:56:36;;;;;;;42.78;38.67;;;;;;;20.11;86.04;100774.03;5047766;28;19924;-81
2022/08/17 00:59:05;;;;;;;41.80;37.80;;;;;;;20.11;85.94;100769.34;5048832;28;20044;-87
2022/08/17 01:01:31;;;;;;;43.25;38.85;;;;;;;20.07;85.86;100769.09;5047815;28;20037;-84
2022/08/17 01:03:57;;;;;;;41.85;37.83;;;;;;;20.23;85.85;100769.06;5048870;28;20122;-83
2022/08/17 01:06:23;;;;;;;41.95;37.95;;;;;;;20.20;85.62;100780.63;5047078;28;20021;-82
2022/08/17 01:08:52;;;;;;;41.10;37.00;;;;;;;20.03;86.15;100768.00;5045641;28;20032;-83
2022/08/17 01:11:17;;;;;;;42.15;38.03;;;;;;;20.22;85.56;100778.41;5047869;28;20033;-82
2022/08/17 01:13:44;;;;;;;38.83;34.97;;;;;;;20.32;84.11;100775.66;5048309;28;20511;-83
2022/08/17 01:16:18;;;;;;;41.72;37.90;;;;;;;20.19;85.40;100773.47;5047576;28;20095;-84
2022/08/17 01:18:47;;;;;;;40.47;36.63;;;;;;;20.10;86.27;100766.88;5046839;28;20507;-85
2022/08/17 01:21:37;;;;;;;40.65;36.63;;;;;;;20.16;85.38;100768.53;5046998;28;20050;-86
2022/08/17 01:24:03;;;;;;;37.95;34.35;;;;;;;20.17;84.74;100765.50;5048399;28;20412;-84
2022/08/17 01:26:31;;;;;;;39.88;35.95;;;;;;;20.23;84.64;100766.31;5047202;28;20047;-83
2022/08/17 01:28:58;;;;;;;39.25;35.35;;;;;;;20.19;85.19;100766.03;5046972;28;20033;-84
2022/08/17 01:31:29;;;;;;;39.25;35.35;;;;;;;20.23;84.89;100766.31;5046392;28;20179;-84
2022/08/17 01:33:58;;;;;;;39.00;35.25;;;;;;;20.21;85.00;100757.53;5047742;28;20029;-82
2022/08/17 01:36:23;;;;;;;38.55;34.83;;;;;;;20.30;83.83;100755.00;5046587;28;20508;-83
2022/08/17 01:38:49;;;;;;;39.90;35.78;;;;;;;20.21;84.55;100752.84;5028147;28;20033;-85
2022/08/17 01:41:16;;;;;;;38.85;34.95;;;;;;;20.23;84.83;100753.38;5047715;28;20040;-83
2022/08/17 01:43:50;;;;;;;38.70;34.97;;;;;;;20.19;85.29;100751.47;5048259;28;20044;-82
2022/08/17 01:46:22;;;;;;;37.65;33.92;;;;;;;20.20;84.54;100748.44;5047139;28;20033;-85
2022/08/17 01:48:47;;;;;;;36.47;32.97;;;;;;;20.23;84.66;100741.56;5046926;28;20029;-83
2022/08/17 01:51:14;;;;;;;37.65;33.95;;;;;;;20.25;84.54;100747.63;5029285;28;20033;-84
2022/08/17 01:53:46;;;;;;;36.30;32.50;;;;;;;20.30;83.85;100744.00;5047356;28;20125;-82
2022/08/17 01:56:15;;;;;;;38.72;34.92;;;;;;;20.23;83.89;100745.13;5046432;28;20045;-83
2022/08/17 01:58:42;;;;;;;36.92;33.30;;;;;;;20.37;83.51;100750.03;5047229;28;20044;-85
2022/08/17 02:01:09;;;;;;;38.33;34.63;;;;;;;20.21;84.07;100750.09;5045086;28;20127;-82
2022/08/17 02:03:36;;;;;;;36.65;32.92;;;;;;;20.28;83.64;100751.69;5045405;28;20040;-85
2022/08/17 02:06:04;;;;;;;38.95;35.22;;;;;;;20.11;84.91;100752.03;5044799;28;20062;-84
2022/08/17 02:08:34;;;;;;;39.05;35.33;;;;;;;20.04;85.40;100753.13;5047001;28;20100;-84
2022/08/17 02:11:02;;;;;;;38.58;35.03;;;;;;;19.89;85.93;100742.16;5046551;28;20482;-85
2022/08/17 02:13:29;;;;;;;37.80;34.17;;;;;;;19.96;85.93;100742.69;5046320;28;20084;-83
2022/08/17 02:15:57;;;;;;;37.70;33.90;;;;;;;19.99;85.88;100742.16;5046171;28;20044;-84
2022/08/17 02:18:22;;;;;;;38.50;34.70;;;;;;;19.95;85.47;100743.81;5046163;28;20419;-85
2022/08/17 02:20:48;;;;;;;36.22;32.75;;;;;;;20.05;85.10;100742.97;5046569;28;20127;-84
2022/08/17 02:23:14;;;;;;;39.13;35.22;;;;;;;20.00;85.62;100742.97;5027513;28;20062;-85
2022/08/17 02:25:42;;;;;;;36.75;33.15;;;;;;;20.01;85.60;100734.44;5045933;28;20160;-83
2022/08/17 02:28:08;;;;;;;36.60;32.95;;;;;;;20.03;85.39;100743.25;5046588;28;20037;-85
2022/08/17 02:30:35;;;;;;;37.78;34.13;;;;;;;19.95;85.88;100743.81;5040753;28;20085;-83
2022/08/17 02:33:00;;;;;;;37.60;34.03;;;;;;;19.77;86.97;100734.16;5045713;28;20040;-81
2022/08/17 02:35:26;;;;;;;37.63;33.85;;;;;;;19.77;86.94;100741.59;5027830;28;20095;-82
2022/08/17 02:37:51;;;;;;;39.85;36.08;;;;;;;19.65;87.11;100739.13;5045232;28;20057;-82
2022/08/17 02:40:17;;;;;;;39.83;35.83;;;;;;;19.56;87.86;100742.44;5046464;28;20037;-83
2022/08/17 02:42:43;;;;;;;41.40;37.30;;;;;;;19.45;88.24;100738.03;5045756;28;20072;-83
2022/08/17 02:45:17;;;;;;;41.13;37.13;;;;;;;19.43;88.37;100728.41;5046052;28;20060;-86
2022/08/17 02:47:43;;;;;;;42.35;38.38;;;;;;;19.32;88.07;100742.13;5044869;28;20044;-84
2022/08/17 02:50:11;;;;;;;41.92;37.85;;;;;;;19.47;87.95;100735.00;5046284;28;20507;-83
2022/08/17 02:52:40;;;;;;;43.58;39.47;;;;;;;19.43;87.96;100731.16;5045606;28;20508;-84
2022/08/17 02:55:08;;;;;;;43.50;39.40;;;;;;;19.39;87.85;100730.88;5045855;28;20051;-85
2022/08/17 02:57:34;;;;;;;43.95;39.65;;;;;;;19.25;88.27;100730.59;5044782;28;20610;-84
2022/08/17 02:59:59;;;;;;;43.38;39.17;;;;;;;19.28;88.48;100721.00;5045783;28;20392;-84
2022/08/17 03:02:25;;;;;;;44.10;40.03;;;;;;;19.32;88.39;100720.16;5044736;28;20374;-85
2022/08/17 03:04:50;;;;;;;46.28;42.00;;;;;;;19.02;89.77;100716.28;5044653;28;20503;-85
2022/08/17 03:07:15;;;;;;;45.63;41.17;;;;;;;19.10;89.83;100723.16;5046055;28;20051;-84
2022/08/17 03:09:41;;;;;;;46.93;42.43;;;;;;;19.16;89.68;100713.84;5045879;28;20636;-85
2022/08/17 03:12:09;;;;;;;49.17;44.63;;;;;;;19.06;90.63;100724.81;5045923;28;20125;-86
2022/08/17 03:14:39;;;;;;;48.87;44.37;;;;;;;19.02;90.89;100721.75;5045086;28;20037;-85
2022/08/17 03:17:05;;;;;;;44.73;40.60;;;;;;;19.17;90.13;100722.91;5045264;28;20040;-85
2022/08/17 03:19:30;;;;;;;46.30;41.88;;;;;;;19.19;89.73;100717.97;5044995;28;20033;-82
2022/08/17 03:21:57;;;;;;;46.25;41.63;;;;;;;19.26;89.47;100723.16;5045311;28;20033;-86
2022/08/17 03:24:23;;;;;;;46.40;42.08;;;;;;;19.29;89.32;100722.66;5044466;28;20037;-82
2022/08/17 03:26:48;;;;;;;44.90;40.60;;;;;;;19.32;89.15;100713.84;5026692;28;20598;-83
2022/08/17 03:29:17;;;;;;;45.00;40.60;;;;;;;19.36;89.01;100715.75;5045209;28;20037;-84
2022/08/17 03:31:47;;;;;;;43.90;39.47;;;;;;;19.35;88.86;100707.81;5027559;28;20638;-83
2022/08/17 03:34:14;;;;;;;41.92;37.83;;;;;;;19.37;89.02;100702.88;5043938;28;20063;-83
2022/08/17 03:36:39;;;;;;;44.70;40.40;;;;;;;19.37;89.09;100722.09;5044356;28;20520;-84
2022/08/17 03:39:05;;;;;;;44.78;40.30;;;;;;;19.26;89.72;100721.28;5045803;28;20044;-81
2022/08/17 03:41:30;;;;;;;44.72;40.53;;;;;;;19.28;90.13;100723.75;5034437;28;20036;-83
2022/08/17 03:43:56;;;;;;;44.45;40.25;;;;;;;19.30;89.99;100725.13;5045202;28;20545;-86
2022/08/17 03:57:25;;;;;;;45.10;40.93;;;;;;;19.37;89.29;100724.84;5044974;28;20067;-83
2022/08/17 03:59:52;;;;;;;45.92;41.42;;;;;;;19.34;89.81;100730.91;5025629;28;20029;-84
2022/08/17 04:02:24;;;;;;;44.47;40.22;;;;;;;19.22;90.20;100733.91;5026741;28;20063;-82
2022/08/17 04:04:51;;;;;;;45.63;40.92;;;;;;;19.18;90.46;100730.06;5045041;28;20484;-81
2022/08/17 04:07:18;;;;;;;47.38;43.05;;;;;;;19.18;90.45;100736.34;5043809;28;20035;-83
2022/08/17 04:09:43;;;;;;;47.97;43.45;;;;;;;19.03;91.92;100731.66;5044933;28;20150;-82
2022/08/17 04:12:10;;;;;;;47.95;43.60;;;;;;;19.04;92.20;100736.06;5025731;28;20044;-80
2022/08/17 04:14:37;;;;;;;48.65;43.95;;;;;;;19.11;91.43;100724.81;5044784;28;20477;-83
2022/08/17 04:17:03;;;;;;;46.50;42.08;;;;;;;19.06;91.10;100747.59;5044163;28;20129;-84
2022/08/17 04:19:29;;;;;;;47.85;43.35;;;;;;;19.01;91.25;100739.38;5045003;28;20041;-83
2022/08/17 04:21:54;;;;;;;48.78;44.13;;;;;;;18.98;92.63;100741.81;5043668;28;20538;-82
2022/08/17 04:24:19;;;;;;;48.60;44.08;;;;;;;18.91;93.07;100749.50;5042699;28;20060;-84
2022/08/17 04:26:45;;;;;;;52.65;47.35;;;;;;;18.86;92.53;100764.81;5025930;28;20145;-86
2022/08/17 04:29:10;;;;;;;50.80;45.83;;;;;;;18.80;93.24;100778.78;5025068;28;20120;-84
2022/08/17 04:31:35;;;;;;;50.22;45.53;;;;;;;18.77;94.34;100782.91;5044618;28;20562;-86
2022/08/17 04:34:01;;;;;;;50.20;45.58;;;;;;;18.82;94.71;100796.66;5025776;28;20079;-84
2022/08/17 04:36:27;;;;;;;49.67;44.93;;;;;;;18.84;95.18;100791.69;5026129;28;20064;-85
2022/08/17 04:38:52;;;;;;;47.47;42.78;;;;;;;18.89;94.64;100782.72;5043635;28;20614;-83
2022/08/17 04:44:03;;;;;;;47.33;42.83;;;;;;;19.01;94.35;100775.06;5044521;28;20401;-84
2022/08/17 04:46:32;;;;;;;47.13;42.63;;;;;;;19.02;94.75;100778.63;5026033;28;20087;-81
2022/08/17 04:48:59;;;;;;;47.10;42.50;;;;;;;19.06;94.40;100788.78;5044761;28;20063;-86
2022/08/17 04:51:35;;;;;;;45.93;41.37;;;;;;;19.11;94.20;100790.72;5044266;28;20063;-86
2022/08/17 04:54:09;;;;;;;45.53;40.92;;;;;;;19.17;94.06;100786.06;5043910;28;20083;-84
2022/08/17 04:56:35;;;;;;;41.72;37.63;;;;;;;19.27;93.36;100788.00;5043933;28;20033;-81
2022/08/17 04:59:04;;;;;;;42.97;39.03;;;;;;;19.26;93.55;100792.69;5044317;28;20048;-85
2022/08/17 05:01:32;;;;;;;42.30;38.20;;;;;;;19.32;93.81;100830.03;5043746;28;20039;-86
2022/08/17 05:04:00;;;;;;;42.50;38.30;;;;;;;19.36;93.27;100820.16;5024486;28;20047;-81
2022/08/17 05:06:27;;;;;;;40.83;36.90;;;;;;;19.42;92.83;100803.69;5043454;28;20064;-81
2022/08/17 05:08:54;;;;;;;40.85;36.95;;;;;;;19.40;92.90;100828.69;5043722;28;20039;-87
2022/08/17 05:11:20;;;;;;;40.72;36.90;;;;;;;19.43;92.62;100824.59;5044064;28;20040;-82
2022/08/17 05:13:48;;;;;;;38.25;34.50;;;;;;;19.49;91.97;100801.53;5045861;28;20045;-86
2022/08/17 05:16:14;;;;;;;41.08;37.10;;;;;;;19.47;92.68;100814.69;5046843;28;20860;-85
2022/08/17 05:18:40;;;;;;;40.92;37.03;;;;;;;19.51;92.38;100813.88;5045163;28;20037;-83
2022/08/17 05:21:06;;;;;;;35.08;31.58;;;;;;;19.58;90.17;100805.34;5047293;28;20041;-83
2022/08/17 05:23:32;;;;;;;38.72;34.83;;;;;;;19.58;91.68;100819.09;5046906;28;20032;-84
2022/08/17 05:25:58;;;;;;;34.90;31.45;;;;;;;19.61;90.25;100804.84;5047249;28;20052;-80
2022/08/17 05:28:28;;;;;;;38.72;34.83;;;;;;;19.61;91.62;100818.56;5046629;28;21376;-81
2022/08/17 05:31:00;;;;;;;39.38;35.33;;;;;;;19.60;91.58;100808.69;5045999;28;20032;-84
2022/08/17 05:33:28;;;;;;;34.13;30.52;;;;;;;19.72;89.61;100803.72;5046977;28;20473;-82
2022/08/17 05:35:56;;;;;;;35.72;32.05;;;;;;;19.81;89.99;100794.97;5047270;28;20060;-81
2022/08/17 05:38:24;;;;;;;35.47;32.08;;;;;;;19.82;89.41;100789.19;5046860;28;20119;-83
2022/08/17 05:40:50;;;;;;;35.83;32.10;;;;;;;19.87;88.91;100791.94;5046626;28;20029;-80
2022/08/17 05:43:30;;;;;;;35.63;32.05;;;;;;;19.93;88.60;100789.19;5045257;28;20162;-84
2022/08/17 05:46:07;;;;;;;35.95;32.25;;;;;;;19.83;89.63;100790.84;5046971;28;20110;-82
2022/08/17 05:48:37;;;;;;;36.63;33.05;;;;;;;19.87;89.69;100791.13;5046404;28;20166;-82
2022/08/17 05:51:31;;;;;;;36.75;32.95;;;;;;;19.93;89.16;100789.19;5047229;28;20093;-83
2022/08/17 05:54:21;;;;;;;36.05;32.42;;;;;;;19.92;88.86;100777.34;5046754;28;20378;-79
2022/08/17 05:57:15;;;;;;;36.60;32.83;;;;;;;20.00;89.82;100779.53;5046671;28;20131;-79
2022/08/17 05:59:59;;;;;;;37.38;33.53;;;;;;;20.01;89.82;100780.38;5046681;28;20135;-82
2022/08/17 06:02:27;;;;;;;37.38;33.67;;;;;;;20.01;89.82;100775.69;5045803;28;20036;-82
2022/08/17 06:05:13;;;;;;;37.63;33.78;;;;;;;20.03;89.52;100773.50;5036538;28;20048;-82
2022/08/17 06:07:51;;;;;;;37.65;33.95;;;;;;;20.14;89.50;100776.22;5047778;28;20028;-81
2022/08/17 06:10:45;;;;;;;34.97;31.55;;;;;;;20.29;87.83;100781.72;5046532;28;20033;-81
2022/08/17 06:13:13;;;;;;;35.97;32.38;;;;;;;20.40;88.09;100791.59;5046288;28;20039;-81
2022/08/17 06:15:48;;;;;;;35.25;31.55;;;;;;;20.58;87.06;100794.84;5045761;28;20396;-83
2022/08/17 06:18:13;;;;;;;37.45;33.83;;;;;;;20.55;88.63;100798.16;5045894;28;20508;-83
2022/08/17 06:20:51;;;;;;;34.08;30.55;;;;;;;20.69;86.71;100790.97;5046393;28;20163;-80
2022/08/17 06:23:25;;;;;;;36.28;32.78;;;;;;;20.78;86.31;100795.88;5046117;28;20040;-81
2022/08/17 06:25:56;;;;;;;32.90;29.67;;;;;;;20.93;85.09;100809.59;5046364;28;20059;-83
2022/08/17 06:28:30;;;;;;;32.05;28.88;;;;;;;21.04;84.33;100811.19;5045568;28;20036;-85
2022/08/17 06:31:03;;;;;;;34.53;31.05;;;;;;;20.96;84.76;100821.97;5037139;28;20048;-83
2022/08/17 06:33:38;;;;;;;35.22;31.52;;;;;;;21.01;84.87;100825.53;5045931;28;20032;-84
2022/08/17 06:36:36;;;;;;;34.13;30.73;;;;;;;21.13;84.88;100827.13;5044921;28;20039;-80
2022/08/17 06:39:30;;;;;;;34.13;30.60;;;;;;;21.13;84.74;100833.44;5045809;28;20588;-80
2022/08/17 06:42:17;;;;;;;32.08;28.88;;;;;;;21.22;83.55;100836.44;5045704;28;20117;-81
2022/08/17 06:44:50;;;;;;;31.23;28.02;;;;;;;21.15;83.03;100841.44;5046299;28;20036;-82
2022/08/17 06:47:44;;;;;;;31.15;27.98;;;;;;;21.32;82.54;100847.41;5045052;28;20580;-80
2022/08/17 06:50:25;;;;;;;30.50;27.40;;;;;;;21.35;82.38;100840.50;5044028;28;20127;-83
2022/08/17 06:53:02;;;;;;;29.00;26.20;;;;;;;21.40;80.76;100844.03;5045992;28;20044;-83
2022/08/17 06:55:43;;;;;;;29.30;26.40;;;;;;;21.46;80.80;100841.25;5045047;28;20135;-82
2022/08/17 06:58:10;;;;;;;29.33;25.80;;;;;;;21.37;80.73;100838.28;5045184;28;20612;-82
2022/08/17 07:00:41;;;;;;;27.20;24.50;;;;;;;21.45;79.40;100845.16;5045361;28;20041;-80
2022/08/17 07:03:06;;;;;;;27.95;24.17;;;;;;;21.51;79.11;100846.75;5046001;28;20064;-83
2022/08/17 07:05:41;;;;;;;28.67;25.67;;;;;;;21.42;80.08;100854.81;5045292;28;20123;-82
2022/08/17 07:08:18;;;;;;;26.77;23.90;;;;;;;21.40;80.26;100844.03;5045170;28;20055;-83
2022/08/17 07:10:49;;;;;;;26.45;23.77;;;;;;;21.39;79.55;100839.66;5027139;28;20546;-83
2022/08/17 07:13:21;;;;;;;26.67;24.00;;;;;;;21.44;79.79;100835.22;5045534;28;20060;-81
2022/08/17 07:15:52;;;;;;;27.10;24.20;;;;;;;21.46;80.01;100850.38;5045010;28;20060;-82
2022/08/17 07:18:17;;;;;;;26.75;23.90;;;;;;;21.57;78.63;100853.91;5045332;28;20086;-81
2022/08/17 07:20:49;;;;;;;26.10;23.33;;;;;;;21.59;78.37;100851.69;5044896;28;20045;-80
2022/08/17 07:23:37;;;;;;;26.98;23.25;;;;;;;21.66;78.90;100854.13;5045773;28;20036;-83
2022/08/17 07:26:07;;;;;;;25.63;23.02;;;;;;;21.68;78.25;100855.47;5044657;28;20091;-83
2022/08/17 07:28:34;;;;;;;27.05;24.35;;;;;;;21.63;77.99;100862.97;5044354;28;20048;-85
2022/08/17 07:31:00;;;;;;;27.80;24.77;;;;;;;21.53;78.75;100852.84;5046100;28;20036;-82
2022/08/17 07:33:29;;;;;;;26.83;23.98;;;;;;;21.58;78.26;100859.13;5044844;28;20131;-83
2022/08/17 07:35:56;;;;;;;25.77;23.10;;;;;;;21.54;78.01;100865.50;5043203;28;20037;-80
2022/08/17 07:38:47;;;;;;;30.55;24.45;;;;;;;21.52;78.09;100851.16;5044342;28;20091;-84
2022/08/17 07:41:12;;;;;;;27.95;24.95;;;;;;;21.62;78.09;100859.38;5044507;28;20099;-80
2022/08/17 07:43:38;;;;;;;26.52;23.63;;;;;;;21.65;77.83;100864.34;5045060;28;20028;-79
2022/08/17 07:49:07;;;;;;;27.95;25.05;;;;;;;21.73;76.81;100873.91;5045146;28;20119;-83
2022/08/17 07:51:52;;;;;;;28.05;25.13;;;;;;;21.67;77.01;100881.41;5044624;28;20131;-84
2022/08/17 07:54:21;;;;;;;27.38;24.40;;;;;;;21.71;76.76;100896.25;5044972;28;20036;-82
2022/08/17 07:56:56;;;;;;;26.67;23.88;;;;;;;21.86;77.02;100895.34;5044283;28;20749;-79
2022/08/17 07:59:29;;;;;;;27.17;24.30;;;;;;;21.93;76.56;100900.53;5044523;28;20492;-81
2022/08/17 08:01:55;;;;;;;26.73;24.03;;;;;;;21.99;76.49;100910.44;5035464;28;20106;-79
2022/08/17 08:04:35;;;;;;;26.77;23.77;;;;;;;22.02;76.22;100903.50;5043955;28;20496;-80
2022/08/17 08:07:05;;;;;;;26.58;23.65;;;;;;;22.03;76.80;100907.91;5042436;28;20036;-80
2022/08/17 08:09:38;;;;;;;25.38;22.58;;;;;;;22.18;75.37;100906.94;5044481;28;20037;-83
2022/08/17 08:12:23;;;;;;;27.43;24.53;;;;;;;22.23;75.75;100909.69;5044168;28;20070;-80
2022/08/17 08:15:17;;;;;;;25.27;22.65;;;;;;;22.36;75.40;100911.81;5044984;28;20067;-82
2022/08/17 08:17:58;;;;;;;27.25;24.25;;;;;;;22.36;74.94;100914.56;5037846;28;20032;-81
2022/08/17 08:20:48;;;;;;;27.58;24.77;;;;;;;22.45;75.60;100911.19;5043579;28;20044;-83
2022/08/17 08:23:40;;;;;;;27.98;25.10;;;;;;;22.45;75.09;100905.66;5037799;28;20037;-80
2022/08/17 08:26:32;;;;;;;28.73;24.90;;;;;;;22.37;75.24;100905.19;5043358;28;20033;-81
2022/08/17 08:29:07;;;;;;;28.35;25.45;;;;;;;22.43;75.16;100895.72;5028050;28;20057;-84
2022/08/17 08:31:44;;;;;;;28.20;25.23;;;;;;;22.53;74.86;100896.75;5043894;28;20453;-83
2022/08/17 08:34:35;;;;;;;28.92;25.98;;;;;;;22.50;75.49;100880.75;5044414;28;20067;-84
2022/08/17 08:37:08;;;;;;;28.92;25.95;;;;;;;22.49;74.69;100868.06;5042075;28;20060;-82
2022/08/17 08:39:59;;;;;;;27.60;24.95;;;;;;;22.55;74.01;100859.44;5043217;28;20045;-82
2022/08/17 08:42:47;;;;;;;28.85;25.83;;;;;;;22.66;73.90;100860.16;5002965;28;20037;-82
2022/08/17 08:45:27;;;;;;;29.30;26.20;;;;;;;22.70;73.68;100869.50;5043247;28;20040;-79
2022/08/17 08:47:52;;;;;;;28.05;25.15;;;;;;;22.87;72.45;100895.81;5030970;28;20039;-78
2022/08/17 08:50:31;;;;;;;27.48;24.45;;;;;;;23.07;73.34;100911.34;5047280;28;20036;-80
2022/08/17 08:53:00;;;;;;;27.00;24.30;;;;;;;23.19;72.24;100922.84;5047373;28;20357;-80
2022/08/17 08:55:46;;;;;;;28.83;25.73;;;;;;;23.22;72.45;100910.38;5047726;28;20045;-82
2022/08/17 08:58:37;;;;;;;27.63;24.80;;;;;;;23.37;71.19;100893.56;5047231;28;20120;-82
2022/08/17 09:01:13;;;;;;;29.90;26.85;;;;;;;23.33;70.72;100875.94;5031289;28;20037;-83
2022/08/17 09:03:42;;;;;;;30.63;27.45;;;;;;;23.33;71.09;100883.41;5048320;28;20029;-83
2022/08/17 09:06:35;;;;;;;29.63;26.55;;;;;;;23.51;70.40;100870.72;5045668;28;20447;-85
2022/08/17 09:09:15;;;;;;;30.00;26.85;;;;;;;23.46;70.56;100863.34;5047836;28;20037;-81
2022/08/17 09:11:53;;;;;;;29.42;26.33;;;;;;;23.55;70.29;100872.56;5028087;28;20678;-80
2022/08/17 09:14:31;;;;;;;27.23;24.42;;;;;;;23.32;70.29;100879.81;5048041;28;20389;-83
2022/08/17 09:17:13;;;;;;;29.15;25.92;;;;;;;23.47;70.69;100869.66;5047322;28;20040;-83
2022/08/17 09:19:47;;;;;;;31.40;26.77;;;;;;;23.34;70.14;100894.19;5047726;28;20040;-82
2022/08/17 09:22:20;;;;;;;29.45;26.38;;;;;;;23.34;69.19;100891.41;5048108;28;20477;-83
2022/08/17 09:24:55;;;;;;;29.98;26.73;;;;;;;23.16;69.10;100894.97;5047937;28;20152;-83
2022/08/17 09:27:25;;;;;;;29.77;26.02;;;;;;;23.17;69.57;100900.19;5048813;28;20039;-88
2022/08/17 09:29:56;;;;;;;29.70;26.55;;;;;;;23.15;70.55;100910.72;5047761;28;20355;-86
2022/08/17 09:32:38;;;;;;;30.13;27.02;;;;;;;23.25;70.24;100910.59;5047346;28;20031;-87
2022/08/17 09:35:15;;;;;;;29.33;26.02;;;;;;;23.13;70.35;100909.38;5046845;28;20041;-88
2022/08/17 09:37:59;;;;;;;31.02;27.70;;;;;;;23.16;70.65;100919.81;5032838;28;20049;-88
2022/08/17 09:40:28;;;;;;;29.17;26.10;;;;;;;23.03;70.29;100913.88;5046492;28;20045;-87
2022/08/17 09:43:15;;;;;;;30.10;26.98;;;;;;;22.93;70.97;100911.25;5046931;28;20488;-87
2022/08/17 09:45:51;;;;;;;30.73;27.55;;;;;;;22.91;71.02;100924.50;5047214;28;20037;-86
2022/08/17 09:48:23;;;;;;;31.63;26.52;;;;;;;22.96;71.73;100926.41;5046544;28;20029;-87
2022/08/17 09:51:00;;;;;;;31.10;27.80;;;;;;;23.02;71.05;100947.31;5047143;28;20032;-86
2022/08/17 09:53:26;;;;;;;33.50;26.50;;;;;;;22.92;70.44;100946.31;5046912;28;20042;-87
2022/08/17 09:55:57;;;;;;;29.45;26.35;;;;;;;22.83;70.41;100969.34;5047304;28;20044;-85
2022/08/17 09:58:43;;;;;;;29.67;26.60;;;;;;;22.88;71.15;100972.06;5045126;28;20178;-87
2022/08/17 10:01:24;;;;;;;30.48;26.13;;;;;;;22.73;71.78;100976.63;5047694;28;20028;-86
2022/08/17 10:04:18;;;;;;;29.73;26.73;;;;;;;22.63;72.09;100985.00;5047186;28;20047;-86
2022/08/17 10:07:23;;;;;;;31.17;26.67;;;;;;;22.58;73.54;100993.34;5046600;28;20060;-86
2022/08/17 10:10:28;;;;;;;31.05;27.90;;;;;;;;;;5046823;28;20064;-86
2022/08/17 10:14:18;;;;;;;32.17;28.77;;;;;;;22.08;76.07;100993.41;5058588;28;20584;-83
2022/08/17 10:16:55;;;;;;;32.55;29.15;;;;;;;21.97;77.51;100981.59;5059310;28;20041;-82
2022/08/17 10:19:52;;;;;;;33.45;30.15;;;;;;;21.97;77.89;100995.41;5057390;28;20647;-82
2022/08/17 10:28:07;;;;;;;36.92;33.13;;;;;;;21.41;85.15;100994.53;5071509;28;20087;-81
2022/08/17 10:30:42;;;;;;;35.78;32.17;;;;;;;21.34;84.76;100999.53;5058681;28;20037;-82
2022/08/17 10:33:16;;;;;;;38.35;34.47;;;;;;;21.20;86.31;101001.19;5058061;28;20043;-80
2022/08/17 10:36:14;;;;;;;38.05;34.35;;;;;;;21.07;87.49;100995.19;5057776;28;20114;-82
2022/08/17 10:38:46;;;;;;;39.13;35.20;;;;;;;20.82;88.86;101006.22;5058223;28;20028;-82
2022/08/17 10:41:39;;;;;;;39.95;35.88;;;;;;;20.74;89.81;100991.94;5072408;28;20040;-83
2022/08/17 10:44:23;;;;;;;40.55;36.40;;;;;;;20.59;91.44;100986.41;5057221;28;20040;-84
2022/08/17 10:47:09;;;;;;;45.78;41.28;;;;;;;20.56;96.72;100979.53;5056215;28;20684;-84
2022/08/17 10:49:54;;;;;;;46.70;42.10;;;;;;;20.26;99.18;100969.31;5058420;28;20091;-83
2022/08/17 10:52:22;;;;;;;44.13;39.38;;;;;;;20.12;98.07;100959.97;5055137;28;20128;-83
2022/08/17 10:55:11;;;;;;;43.80;39.20;;;;;;;20.09;99.78;100947.59;5054227;28;20730;-81
2022/08/17 10:57:41;;;;;;;46.53;41.92;;;;;;;19.97;99.75;100944.28;5054544;28;20487;-81
2022/08/17 11:00:14;;;;;;;45.95;41.55;;;;;;;19.97;100.00;100938.78;5053237;28;20032;-83
2022/08/17 11:02:49;;;;;;;47.20;42.60;;;;;;;20.02;100.00;100942.34;5052279;28;20598;-82
2022/08/17 11:05:21;;;;;;;47.17;42.67;;;;;;;20.03;100.00;100949.53;5053813;28;20033;-82
2022/08/17 11:08:11;;;;;;;49.20;44.25;;;;;;;20.04;100.00;100944.84;5054364;28;20071;-82
2022/08/17 11:10:53;;;;;;;50.35;45.35;;;;;;;20.08;100.00;100934.94;5053577;28;20114;-82
2022/08/17 11:13:44;;;;;;;51.33;46.15;;;;;;;20.04;100.00;100933.84;5051691;28;20059;-83
2022/08/17 11:16:18;;;;;;;48.35;43.63;;;;;;;20.00;100.00;100936.28;5053667;28;20040;-83
2022/08/17 11:19:08;;;;;;;47.10;42.42;;;;;;;19.98;100.00;100941.25;5054398;28;20113;-83
2022/08/17 11:21:58;;;;;;;47.05;42.45;;;;;;;19.99;100.00;100956.66;5052861;28;20041;-84
2022/08/17 11:24:46;;;;;;;48.97;44.03;;;;;;;19.96;100.00;100950.88;5046120;28;20083;-84
2022/08/17 11:27:28;;;;;;;49.25;44.35;;;;;;;19.98;100.00;100966.00;5040299;28;20114;-82
2022/08/17 11:29:58;;;;;;;48.63;43.90;;;;;;;19.96;100.00;100956.38;5039987;28;20644;-82
2022/08/17 11:32:39;;;;;;;50.40;45.53;;;;;;;19.98;100.00;100951.44;5039902;28;20136;-83
2022/08/17 11:35:20;;;;;;;50.90;45.85;;;;;;;20.02;100.00;100961.59;5038659;28;20045;-83
2022/08/17 11:37:54;;;;;;;50.30;45.22;;;;;;;19.97;100.00;100964.34;5040981;28;20024;-84
2022/08/17 11:41:02;;;;;;;52.25;47.00;;;;;;;20.00;100.00;100961.03;5041127;28;20132;-85
2022/08/17 11:43:44;;;;;;;49.38;44.67;;;;;;;19.95;100.00;100965.72;5039968;28;20079;-83
2022/08/17 11:46:09;;;;;;;50.08;45.08;;;;;;;19.98;100.00;100965.19;5040361;28;20648;-88
2022/08/17 11:52:00;;;;;;;49.67;44.88;;;;;;;19.95;100.00;100971.22;5039312;28;20211;-83
2022/08/17 11:54:45;;;;;;;48.35;43.35;;;;;;;19.91;100.00;100995.69;5039843;28;20101;-84
2022/08/17 11:57:26;;;;;;;47.17;42.78;;;;;;;19.87;100.00;101000.91;5037828;28;20059;-83
2022/08/17 11:59:59;;;;;;;47.40;42.90;;;;;;;19.84;100.00;101017.09;5040623;28;20107;-84
2022/08/17 12:02:26;;;;;;;48.85;44.05;;;;;;;19.79;100.00;101014.31;5038890;28;20176;-83
2022/08/17 12:05:13;;;;;;;51.85;46.65;;;;;;;19.82;100.00;101016.56;5038556;28;20376;-83